sensor_id;sensor_type;location;lat;lon;timestamp;P1;durP1;ratioP1;P2;durP2;ratioP2
13309;SDS011;6723;48.256;16.402;2023-02-07T00:00:07;27.65;;;16.13;;
13309;SDS011;6723;48.256;16.402;2023-02-07T00:02:35;31.10;;;16.45;;
13309;SDS011;6723;48.256;16.402;2023-02-07T00:05:01;26.17;;;16.33;;
13309;SDS011;6723;48.256;16.402;2023-02-07T00:07:27;30.00;;;16.33;;
13309;SDS011;6723;48.256;16.402;2023-02-07T00:09:53;28.17;;;16.57;;
13309;SDS011;6723;48.256;16.402;2023-02-07T00:12:18;31.37;;;16.60;;
13309;SDS011;6723;48.256;16.402;2023-02-07T00:14:44;32.10;;;16.63;;
13309;SDS011;6723;48.256;16.402;2023-02-07T00:17:10;33.27;;;17.50;;
13309;SDS011;6723;48.256;16.402;2023-02-07T00:19:36;26.10;;;15.83;;
13309;SDS011;6723;48.256;16.402;2023-02-07T00:22:01;28.73;;;16.27;;
13309;SDS011;6723;48.256;16.402;2023-02-07T00:24:27;30.67;;;16.80;;
13309;SDS011;6723;48.256;16.402;2023-02-07T00:26:53;32.57;;;17.37;;
13309;SDS011;6723;48.256;16.402;2023-02-07T00:29:20;26.65;;;15.77;;
13309;SDS011;6723;48.256;16.402;2023-02-07T00:31:46;32.42;;;17.23;;
13309;SDS011;6723;48.256;16.402;2023-02-07T00:34:12;31.45;;;17.52;;
13309;SDS011;6723;48.256;16.402;2023-02-07T00:36:39;31.77;;;17.45;;
13309;SDS011;6723;48.256;16.402;2023-02-07T00:39:07;32.00;;;17.15;;
13309;SDS011;6723;48.256;16.402;2023-02-07T00:41:37;29.85;;;17.08;;
13309;SDS011;6723;48.256;16.402;2023-02-07T00:44:07;32.47;;;17.67;;
13309;SDS011;6723;48.256;16.402;2023-02-07T00:46:33;30.75;;;17.73;;
13309;SDS011;6723;48.256;16.402;2023-02-07T00:48:59;33.70;;;18.27;;
13309;SDS011;6723;48.256;16.402;2023-02-07T00:51:26;32.63;;;17.75;;
13309;SDS011;6723;48.256;16.402;2023-02-07T00:53:53;35.35;;;18.83;;
13309;SDS011;6723;48.256;16.402;2023-02-07T00:56:20;35.70;;;18.52;;
13309;SDS011;6723;48.256;16.402;2023-02-07T00:58:47;34.00;;;19.70;;
13309;SDS011;6723;48.256;16.402;2023-02-07T01:01:13;36.87;;;18.70;;
13309;SDS011;6723;48.256;16.402;2023-02-07T01:03:39;32.53;;;19.25;;
13309;SDS011;6723;48.256;16.402;2023-02-07T01:06:05;32.05;;;18.33;;
13309;SDS011;6723;48.256;16.402;2023-02-07T01:08:32;32.10;;;18.15;;
13309;SDS011;6723;48.256;16.402;2023-02-07T01:11:04;36.10;;;18.83;;
13309;SDS011;6723;48.256;16.402;2023-02-07T01:13:32;36.30;;;19.17;;
13309;SDS011;6723;48.256;16.402;2023-02-07T01:15:59;33.47;;;18.92;;
13309;SDS011;6723;48.256;16.402;2023-02-07T01:18:25;36.70;;;19.05;;
13309;SDS011;6723;48.256;16.402;2023-02-07T01:20:51;31.98;;;18.52;;
13309;SDS011;6723;48.256;16.402;2023-02-07T01:23:17;33.33;;;18.40;;
13309;SDS011;6723;48.256;16.402;2023-02-07T01:25:44;36.72;;;19.00;;
13309;SDS011;6723;48.256;16.402;2023-02-07T01:28:14;32.03;;;17.63;;
13309;SDS011;6723;48.256;16.402;2023-02-07T01:30:40;31.55;;;18.63;;
13309;SDS011;6723;48.256;16.402;2023-02-07T01:33:07;30.90;;;17.40;;
13309;SDS011;6723;48.256;16.402;2023-02-07T01:35:34;31.63;;;17.60;;
13309;SDS011;6723;48.256;16.402;2023-02-07T01:38:01;31.55;;;17.63;;
13309;SDS011;6723;48.256;16.402;2023-02-07T01:40:27;35.87;;;18.47;;
13309;SDS011;6723;48.256;16.402;2023-02-07T01:42:54;33.83;;;19.23;;
13309;SDS011;6723;48.256;16.402;2023-02-07T01:47:48;32.95;;;18.30;;
13309;SDS011;6723;48.256;16.402;2023-02-07T01:50:15;33.85;;;17.77;;
13309;SDS011;6723;48.256;16.402;2023-02-07T01:52:41;33.92;;;19.55;;
13309;SDS011;6723;48.256;16.402;2023-02-07T01:55:09;33.72;;;18.88;;
13309;SDS011;6723;48.256;16.402;2023-02-07T01:57:38;32.50;;;18.73;;
13309;SDS011;6723;48.256;16.402;2023-02-07T02:00:05;33.30;;;18.40;;
13309;SDS011;6723;48.256;16.402;2023-02-07T02:02:33;33.22;;;18.45;;
13309;SDS011;6723;48.256;16.402;2023-02-07T02:05:00;33.90;;;17.88;;
13309;SDS011;6723;48.256;16.402;2023-02-07T02:07:27;34.53;;;19.20;;
13309;SDS011;6723;48.256;16.402;2023-02-07T02:09:57;35.38;;;19.15;;
13309;SDS011;6723;48.256;16.402;2023-02-07T02:12:27;36.92;;;18.60;;
13309;SDS011;6723;48.256;16.402;2023-02-07T02:17:55;34.28;;;19.13;;
13309;SDS011;6723;48.256;16.402;2023-02-07T02:34:38;34.83;;;18.65;;
13309;SDS011;6723;48.256;16.402;2023-02-07T02:40:00;34.28;;;18.27;;
13309;SDS011;6723;48.256;16.402;2023-02-07T02:42:39;35.83;;;18.27;;
13309;SDS011;6723;48.256;16.402;2023-02-07T02:45:18;34.15;;;18.48;;
13309;SDS011;6723;48.256;16.402;2023-02-07T02:47:52;35.10;;;17.67;;
13309;SDS011;6723;48.256;16.402;2023-02-07T02:50:26;31.75;;;17.50;;
13309;SDS011;6723;48.256;16.402;2023-02-07T02:52:54;33.53;;;17.55;;
13309;SDS011;6723;48.256;16.402;2023-02-07T03:06:34;35.85;;;17.83;;
13309;SDS011;6723;48.256;16.402;2023-02-07T03:20:12;31.98;;;18.08;;
13309;SDS011;6723;48.256;16.402;2023-02-07T03:22:39;32.92;;;16.98;;
13309;SDS011;6723;48.256;16.402;2023-02-07T03:25:08;33.85;;;18.52;;
13309;SDS011;6723;48.256;16.402;2023-02-07T03:27:35;33.72;;;17.75;;
13309;SDS011;6723;48.256;16.402;2023-02-07T03:30:04;34.70;;;17.92;;
13309;SDS011;6723;48.256;16.402;2023-02-07T03:32:35;33.95;;;17.80;;
13309;SDS011;6723;48.256;16.402;2023-02-07T03:35:05;41.38;;;19.85;;
13309;SDS011;6723;48.256;16.402;2023-02-07T03:37:43;35.88;;;18.75;;
13309;SDS011;6723;48.256;16.402;2023-02-07T03:40:22;35.60;;;19.63;;
13309;SDS011;6723;48.256;16.402;2023-02-07T03:43:04;33.90;;;18.98;;
13309;SDS011;6723;48.256;16.402;2023-02-07T03:45:36;34.58;;;18.17;;
13309;SDS011;6723;48.256;16.402;2023-02-07T03:48:02;35.08;;;18.33;;
13309;SDS011;6723;48.256;16.402;2023-02-07T03:50:27;37.87;;;19.07;;
13309;SDS011;6723;48.256;16.402;2023-02-07T03:52:53;33.17;;;18.53;;
13309;SDS011;6723;48.256;16.402;2023-02-07T03:55:19;35.17;;;18.43;;
13309;SDS011;6723;48.256;16.402;2023-02-07T03:57:45;34.07;;;18.90;;
13309;SDS011;6723;48.256;16.402;2023-02-07T04:00:10;30.63;;;17.33;;
13309;SDS011;6723;48.256;16.402;2023-02-07T04:02:37;37.03;;;19.55;;
13309;SDS011;6723;48.256;16.402;2023-02-07T04:05:03;33.07;;;18.70;;
13309;SDS011;6723;48.256;16.402;2023-02-07T04:07:29;34.83;;;18.60;;
13309;SDS011;6723;48.256;16.402;2023-02-07T04:09:54;32.50;;;17.80;;
13309;SDS011;6723;48.256;16.402;2023-02-07T04:12:20;35.60;;;19.77;;
13309;SDS011;6723;48.256;16.402;2023-02-07T04:14:46;35.03;;;18.33;;
13309;SDS011;6723;48.256;16.402;2023-02-07T04:17:22;31.40;;;17.47;;
13309;SDS011;6723;48.256;16.402;2023-02-07T04:19:47;32.17;;;17.63;;
13309;SDS011;6723;48.256;16.402;2023-02-07T04:22:13;37.10;;;18.30;;
13309;SDS011;6723;48.256;16.402;2023-02-07T04:24:39;32.50;;;16.87;;
13309;SDS011;6723;48.256;16.402;2023-02-07T04:27:04;29.97;;;17.30;;
13309;SDS011;6723;48.256;16.402;2023-02-07T04:29:31;36.28;;;18.15;;
13309;SDS011;6723;48.256;16.402;2023-02-07T04:31:56;30.67;;;17.03;;
13309;SDS011;6723;48.256;16.402;2023-02-07T04:34:22;30.63;;;17.77;;
13309;SDS011;6723;48.256;16.402;2023-02-07T04:36:48;31.17;;;17.53;;
13309;SDS011;6723;48.256;16.402;2023-02-07T04:39:14;31.80;;;17.43;;
13309;SDS011;6723;48.256;16.402;2023-02-07T04:41:39;36.87;;;19.03;;
13309;SDS011;6723;48.256;16.402;2023-02-07T04:44:05;29.23;;;16.30;;
13309;SDS011;6723;48.256;16.402;2023-02-07T04:46:39;31.20;;;17.23;;
13309;SDS011;6723;48.256;16.402;2023-02-07T04:49:04;34.28;;;17.05;;
13309;SDS011;6723;48.256;16.402;2023-02-07T04:51:30;33.23;;;17.30;;
13309;SDS011;6723;48.256;16.402;2023-02-07T04:53:57;31.42;;;17.52;;
13309;SDS011;6723;48.256;16.402;2023-02-07T04:56:23;33.30;;;16.92;;
13309;SDS011;6723;48.256;16.402;2023-02-07T04:58:49;31.70;;;16.55;;
13309;SDS011;6723;48.256;16.402;2023-02-07T05:01:16;31.83;;;17.15;;
13309;SDS011;6723;48.256;16.402;2023-02-07T05:03:41;31.63;;;17.73;;
13309;SDS011;6723;48.256;16.402;2023-02-07T05:06:07;33.20;;;18.00;;
13309;SDS011;6723;48.256;16.402;2023-02-07T05:08:34;28.88;;;16.80;;
13309;SDS011;6723;48.256;16.402;2023-02-07T05:11:01;34.63;;;16.08;;
13309;SDS011;6723;48.256;16.402;2023-02-07T05:13:28;28.67;;;16.40;;
13309;SDS011;6723;48.256;16.402;2023-02-07T05:15:53;36.53;;;17.83;;
13309;SDS011;6723;48.256;16.402;2023-02-07T05:18:19;31.00;;;17.10;;
13309;SDS011;6723;48.256;16.402;2023-02-07T05:23:35;29.90;;;16.20;;
13309;SDS011;6723;48.256;16.402;2023-02-07T05:26:01;30.75;;;16.60;;
13309;SDS011;6723;48.256;16.402;2023-02-07T05:28:27;30.77;;;15.90;;
13309;SDS011;6723;48.256;16.402;2023-02-07T05:30:56;32.17;;;16.30;;
13309;SDS011;6723;48.256;16.402;2023-02-07T05:33:22;33.40;;;17.85;;
13309;SDS011;6723;48.256;16.402;2023-02-07T05:35:48;27.20;;;16.83;;
13309;SDS011;6723;48.256;16.402;2023-02-07T05:38:15;31.60;;;16.17;;
13309;SDS011;6723;48.256;16.402;2023-02-07T05:40:42;30.85;;;16.52;;
13309;SDS011;6723;48.256;16.402;2023-02-07T05:43:09;29.10;;;15.95;;
13309;SDS011;6723;48.256;16.402;2023-02-07T05:45:36;34.55;;;16.88;;
13309;SDS011;6723;48.256;16.402;2023-02-07T05:48:03;32.92;;;17.60;;
13309;SDS011;6723;48.256;16.402;2023-02-07T05:50:29;31.23;;;17.17;;
13309;SDS011;6723;48.256;16.402;2023-02-07T05:52:55;30.67;;;17.35;;
13309;SDS011;6723;48.256;16.402;2023-02-07T05:55:21;32.53;;;17.20;;
13309;SDS011;6723;48.256;16.402;2023-02-07T05:57:47;30.97;;;16.77;;
13309;SDS011;6723;48.256;16.402;2023-02-07T06:00:13;33.27;;;17.43;;
13309;SDS011;6723;48.256;16.402;2023-02-07T06:02:41;33.95;;;18.10;;
13309;SDS011;6723;48.256;16.402;2023-02-07T06:05:08;27.42;;;16.13;;
13309;SDS011;6723;48.256;16.402;2023-02-07T06:07:35;29.55;;;16.67;;
13309;SDS011;6723;48.256;16.402;2023-02-07T06:10:02;32.30;;;17.37;;
13309;SDS011;6723;48.256;16.402;2023-02-07T06:12:30;30.88;;;17.65;;
13309;SDS011;6723;48.256;16.402;2023-02-07T06:14:56;31.98;;;17.75;;
13309;SDS011;6723;48.256;16.402;2023-02-07T06:17:22;31.70;;;17.57;;
13309;SDS011;6723;48.256;16.402;2023-02-07T06:19:48;32.17;;;16.27;;
13309;SDS011;6723;48.256;16.402;2023-02-07T06:22:15;35.42;;;18.05;;
13309;SDS011;6723;48.256;16.402;2023-02-07T06:24:41;31.20;;;17.03;;
13309;SDS011;6723;48.256;16.402;2023-02-07T06:27:06;35.70;;;17.90;;
13309;SDS011;6723;48.256;16.402;2023-02-07T06:29:32;32.20;;;17.57;;
13309;SDS011;6723;48.256;16.402;2023-02-07T06:31:58;32.03;;;16.73;;
13309;SDS011;6723;48.256;16.402;2023-02-07T06:34:24;34.50;;;17.83;;
13309;SDS011;6723;48.256;16.402;2023-02-07T06:36:49;30.07;;;17.13;;
13309;SDS011;6723;48.256;16.402;2023-02-07T06:39:15;31.50;;;17.13;;
13309;SDS011;6723;48.256;16.402;2023-02-07T06:41:41;30.30;;;15.70;;
13309;SDS011;6723;48.256;16.402;2023-02-07T06:44:07;29.27;;;16.37;;
13309;SDS011;6723;48.256;16.402;2023-02-07T06:46:32;32.47;;;16.97;;
13309;SDS011;6723;48.256;16.402;2023-02-07T06:48:58;33.07;;;17.07;;
13309;SDS011;6723;48.256;16.402;2023-02-07T06:51:24;34.07;;;16.40;;
13309;SDS011;6723;48.256;16.402;2023-02-07T06:53:49;29.00;;;17.23;;
13309;SDS011;6723;48.256;16.402;2023-02-07T06:56:15;29.87;;;15.83;;
13309;SDS011;6723;48.256;16.402;2023-02-07T06:58:41;33.30;;;17.20;;
13309;SDS011;6723;48.256;16.402;2023-02-07T07:01:07;31.10;;;15.97;;
13309;SDS011;6723;48.256;16.402;2023-02-07T07:03:33;28.45;;;15.38;;
13309;SDS011;6723;48.256;16.402;2023-02-07T07:05:59;31.25;;;16.77;;
13309;SDS011;6723;48.256;16.402;2023-02-07T07:08:25;30.10;;;16.50;;
13309;SDS011;6723;48.256;16.402;2023-02-07T07:10:52;28.55;;;16.27;;
13309;SDS011;6723;48.256;16.402;2023-02-07T07:13:18;29.75;;;16.00;;
13309;SDS011;6723;48.256;16.402;2023-02-07T07:15:45;27.33;;;16.13;;
13309;SDS011;6723;48.256;16.402;2023-02-07T07:18:11;32.00;;;16.92;;
13309;SDS011;6723;48.256;16.402;2023-02-07T07:20:37;29.60;;;16.60;;
13309;SDS011;6723;48.256;16.402;2023-02-07T07:23:03;29.10;;;15.80;;
13309;SDS011;6723;48.256;16.402;2023-02-07T07:25:29;34.47;;;17.75;;
13309;SDS011;6723;48.256;16.402;2023-02-07T07:27:55;30.17;;;16.43;;
13309;SDS011;6723;48.256;16.402;2023-02-07T07:30:22;34.47;;;17.53;;
13309;SDS011;6723;48.256;16.402;2023-02-07T07:32:48;33.17;;;17.08;;
13309;SDS011;6723;48.256;16.402;2023-02-07T07:35:13;29.53;;;16.27;;
13309;SDS011;6723;48.256;16.402;2023-02-07T07:37:39;28.47;;;16.07;;
13309;SDS011;6723;48.256;16.402;2023-02-07T07:40:06;32.50;;;17.10;;
13309;SDS011;6723;48.256;16.402;2023-02-07T07:42:32;33.17;;;16.90;;
13309;SDS011;6723;48.256;16.402;2023-02-07T07:44:59;29.10;;;17.30;;
13309;SDS011;6723;48.256;16.402;2023-02-07T07:47:25;32.90;;;18.00;;
13309;SDS011;6723;48.256;16.402;2023-02-07T07:49:52;31.93;;;17.37;;
13309;SDS011;6723;48.256;16.402;2023-02-07T07:52:18;36.93;;;18.23;;
13309;SDS011;6723;48.256;16.402;2023-02-07T07:54:44;30.00;;;17.07;;
13309;SDS011;6723;48.256;16.402;2023-02-07T07:57:09;28.77;;;17.17;;
13309;SDS011;6723;48.256;16.402;2023-02-07T07:59:35;31.97;;;17.93;;
13309;SDS011;6723;48.256;16.402;2023-02-07T08:02:01;28.17;;;16.83;;
13309;SDS011;6723;48.256;16.402;2023-02-07T08:04:27;30.70;;;17.50;;
13309;SDS011;6723;48.256;16.402;2023-02-07T08:06:52;30.17;;;17.77;;
13309;SDS011;6723;48.256;16.402;2023-02-07T08:09:18;30.83;;;17.33;;
13309;SDS011;6723;48.256;16.402;2023-02-07T08:11:45;28.20;;;17.73;;
13309;SDS011;6723;48.256;16.402;2023-02-07T08:14:11;31.83;;;17.77;;
13309;SDS011;6723;48.256;16.402;2023-02-07T08:16:36;29.33;;;17.67;;
13309;SDS011;6723;48.256;16.402;2023-02-07T08:19:02;31.47;;;18.17;;
13309;SDS011;6723;48.256;16.402;2023-02-07T08:21:28;31.90;;;18.87;;
13309;SDS011;6723;48.256;16.402;2023-02-07T08:23:53;32.17;;;19.00;;
13309;SDS011;6723;48.256;16.402;2023-02-07T08:26:19;30.47;;;18.63;;
13309;SDS011;6723;48.256;16.402;2023-02-07T08:28:45;33.83;;;20.73;;
13309;SDS011;6723;48.256;16.402;2023-02-07T08:31:11;38.13;;;20.53;;
13309;SDS011;6723;48.256;16.402;2023-02-07T08:33:37;37.57;;;22.73;;
13309;SDS011;6723;48.256;16.402;2023-02-07T08:36:03;37.37;;;22.97;;
13309;SDS011;6723;48.256;16.402;2023-02-07T08:38:35;33.23;;;21.73;;
13309;SDS011;6723;48.256;16.402;2023-02-07T08:41:01;34.70;;;22.20;;
13309;SDS011;6723;48.256;16.402;2023-02-07T08:43:28;35.40;;;23.27;;
13309;SDS011;6723;48.256;16.402;2023-02-07T08:45:53;34.90;;;22.53;;
13309;SDS011;6723;48.256;16.402;2023-02-07T08:48:19;34.60;;;23.23;;
13309;SDS011;6723;48.256;16.402;2023-02-07T08:50:45;32.93;;;22.50;;
13309;SDS011;6723;48.256;16.402;2023-02-07T08:53:11;28.60;;;21.33;;
13309;SDS011;6723;48.256;16.402;2023-02-07T08:55:38;32.77;;;22.83;;
13309;SDS011;6723;48.256;16.402;2023-02-07T08:58:11;32.47;;;21.80;;
13309;SDS011;6723;48.256;16.402;2023-02-07T09:00:37;34.53;;;23.03;;
13309;SDS011;6723;48.256;16.402;2023-02-07T09:03:03;31.67;;;22.63;;
13309;SDS011;6723;48.256;16.402;2023-02-07T09:05:30;34.23;;;24.03;;
13309;SDS011;6723;48.256;16.402;2023-02-07T09:07:59;34.17;;;23.53;;
13309;SDS011;6723;48.256;16.402;2023-02-07T09:10:39;35.63;;;24.30;;
13309;SDS011;6723;48.256;16.402;2023-02-07T09:13:05;35.07;;;23.50;;
13309;SDS011;6723;48.256;16.402;2023-02-07T09:15:30;32.73;;;23.27;;
13309;SDS011;6723;48.256;16.402;2023-02-07T09:17:56;30.57;;;22.90;;
13309;SDS011;6723;48.256;16.402;2023-02-07T09:20:22;31.87;;;22.50;;
13309;SDS011;6723;48.256;16.402;2023-02-07T09:22:48;28.63;;;22.13;;
13309;SDS011;6723;48.256;16.402;2023-02-07T09:25:32;28.87;;;21.50;;
13309;SDS011;6723;48.256;16.402;2023-02-07T09:27:58;29.30;;;22.07;;
13309;SDS011;6723;48.256;16.402;2023-02-07T09:30:23;28.17;;;21.30;;
13309;SDS011;6723;48.256;16.402;2023-02-07T09:32:49;25.70;;;20.80;;
13309;SDS011;6723;48.256;16.402;2023-02-07T09:38:06;25.67;;;19.70;;
13309;SDS011;6723;48.256;16.402;2023-02-07T09:40:33;29.80;;;21.50;;
13309;SDS011;6723;48.256;16.402;2023-02-07T09:45:44;26.60;;;20.23;;
13309;SDS011;6723;48.256;16.402;2023-02-07T09:48:15;29.33;;;21.07;;
13309;SDS011;6723;48.256;16.402;2023-02-07T09:50:51;27.90;;;20.57;;
13309;SDS011;6723;48.256;16.402;2023-02-07T09:53:24;26.83;;;21.07;;
13309;SDS011;6723;48.256;16.402;2023-02-07T09:56:05;25.80;;;21.13;;
13309;SDS011;6723;48.256;16.402;2023-02-07T10:01:25;23.13;;;19.83;;
13309;SDS011;6723;48.256;16.402;2023-02-07T10:06:53;27.83;;;20.70;;
13309;SDS011;6723;48.256;16.402;2023-02-07T10:09:26;26.20;;;20.10;;
13309;SDS011;6723;48.256;16.402;2023-02-07T10:17:34;26.33;;;21.17;;
13309;SDS011;6723;48.256;16.402;2023-02-07T10:20:25;28.20;;;21.97;;
13309;SDS011;6723;48.256;16.402;2023-02-07T10:28:30;25.07;;;20.13;;
13309;SDS011;6723;48.256;16.402;2023-02-07T10:31:12;30.00;;;21.40;;
13309;SDS011;6723;48.256;16.402;2023-02-07T10:36:39;28.10;;;21.73;;
13309;SDS011;6723;48.256;16.402;2023-02-07T10:39:13;33.57;;;22.33;;
13309;SDS011;6723;48.256;16.402;2023-02-07T10:42:04;33.33;;;22.23;;
13309;SDS011;6723;48.256;16.402;2023-02-07T10:44:36;28.97;;;21.20;;
13309;SDS011;6723;48.256;16.402;2023-02-07T10:49:46;25.87;;;21.10;;
13309;SDS011;6723;48.256;16.402;2023-02-07T10:52:33;32.00;;;21.17;;
13309;SDS011;6723;48.256;16.402;2023-02-07T10:55:05;27.90;;;20.77;;
13309;SDS011;6723;48.256;16.402;2023-02-07T10:57:32;27.80;;;21.20;;
13309;SDS011;6723;48.256;16.402;2023-02-07T11:00:00;27.33;;;21.03;;
13309;SDS011;6723;48.256;16.402;2023-02-07T11:02:39;28.87;;;20.97;;
13309;SDS011;6723;48.256;16.402;2023-02-07T11:07:55;26.67;;;19.80;;
13309;SDS011;6723;48.256;16.402;2023-02-07T11:10:24;26.43;;;20.37;;
13309;SDS011;6723;48.256;16.402;2023-02-07T11:12:56;25.40;;;19.40;;
13309;SDS011;6723;48.256;16.402;2023-02-07T11:15:25;26.77;;;21.17;;
13309;SDS011;6723;48.256;16.402;2023-02-07T11:18:05;25.07;;;20.27;;
13309;SDS011;6723;48.256;16.402;2023-02-07T11:20:38;28.10;;;20.93;;
13309;SDS011;6723;48.256;16.402;2023-02-07T11:25:53;26.43;;;19.30;;
13309;SDS011;6723;48.256;16.402;2023-02-07T11:28:21;23.33;;;18.43;;
13309;SDS011;6723;48.256;16.402;2023-02-07T11:30:57;24.57;;;19.27;;
13309;SDS011;6723;48.256;16.402;2023-02-07T11:33:27;24.70;;;18.20;;
13309;SDS011;6723;48.256;16.402;2023-02-07T11:38:49;25.70;;;19.23;;
13309;SDS011;6723;48.256;16.402;2023-02-07T11:41:30;24.10;;;18.73;;
13309;SDS011;6723;48.256;16.402;2023-02-07T11:46:46;28.20;;;19.30;;
13309;SDS011;6723;48.256;16.402;2023-02-07T11:52:06;26.67;;;19.17;;
13309;SDS011;6723;48.256;16.402;2023-02-07T11:54:33;26.00;;;18.47;;
13309;SDS011;6723;48.256;16.402;2023-02-07T11:57:08;26.10;;;18.63;;
13309;SDS011;6723;48.256;16.402;2023-02-07T11:59:47;27.27;;;18.53;;
13309;SDS011;6723;48.256;16.402;2023-02-07T12:02:22;25.07;;;18.37;;
13309;SDS011;6723;48.256;16.402;2023-02-07T12:04:50;28.67;;;18.43;;
13309;SDS011;6723;48.256;16.402;2023-02-07T12:09:54;25.73;;;17.93;;
13309;SDS011;6723;48.256;16.402;2023-02-07T12:15:17;25.50;;;18.20;;
13309;SDS011;6723;48.256;16.402;2023-02-07T12:20:34;27.07;;;18.43;;
13309;SDS011;6723;48.256;16.402;2023-02-07T12:23:34;23.77;;;17.63;;
13309;SDS011;6723;48.256;16.402;2023-02-07T12:29:33;29.40;;;18.37;;
13309;SDS011;6723;48.256;16.402;2023-02-07T12:32:20;27.30;;;18.17;;
13309;SDS011;6723;48.256;16.402;2023-02-07T12:38:31;24.53;;;18.17;;
13309;SDS011;6723;48.256;16.402;2023-02-07T12:40:46;24.93;;;18.07;;
13309;SDS011;6723;48.256;16.402;2023-02-07T12:43:41;24.07;;;17.63;;
13309;SDS011;6723;48.256;16.402;2023-02-07T12:57:42;25.47;;;17.73;;
13309;SDS011;6723;48.256;16.402;2023-02-07T13:05:48;24.00;;;17.23;;
13309;SDS011;6723;48.256;16.402;2023-02-07T13:08:32;25.63;;;17.60;;
13309;SDS011;6723;48.256;16.402;2023-02-07T13:17:16;23.67;;;15.80;;
13309;SDS011;6723;48.256;16.402;2023-02-07T13:22:56;26.03;;;16.43;;
13309;SDS011;6723;48.256;16.402;2023-02-07T13:25:37;26.33;;;16.00;;
13309;SDS011;6723;48.256;16.402;2023-02-07T13:28:07;21.63;;;14.70;;
13309;SDS011;6723;48.256;16.402;2023-02-07T13:30:42;22.43;;;13.87;;
13309;SDS011;6723;48.256;16.402;2023-02-07T13:33:17;24.13;;;13.73;;
13309;SDS011;6723;48.256;16.402;2023-02-07T13:36:00;22.53;;;13.83;;
13309;SDS011;6723;48.256;16.402;2023-02-07T13:51:55;22.80;;;13.70;;
13309;SDS011;6723;48.256;16.402;2023-02-07T13:54:30;23.33;;;14.07;;
13309;SDS011;6723;48.256;16.402;2023-02-07T13:57:03;19.77;;;13.50;;
13309;SDS011;6723;48.256;16.402;2023-02-07T14:00:04;20.83;;;13.80;;
13309;SDS011;6723;48.256;16.402;2023-02-07T14:02:46;20.83;;;13.40;;
13309;SDS011;6723;48.256;16.402;2023-02-07T14:05:38;26.13;;;13.97;;
13309;SDS011;6723;48.256;16.402;2023-02-07T14:10:46;23.67;;;12.97;;
13309;SDS011;6723;48.256;16.402;2023-02-07T14:13:21;19.40;;;13.30;;
13309;SDS011;6723;48.256;16.402;2023-02-07T14:34:22;20.27;;;12.03;;
13309;SDS011;6723;48.256;16.402;2023-02-07T14:36:52;21.23;;;11.73;;
13309;SDS011;6723;48.256;16.402;2023-02-07T14:41:48;20.03;;;12.80;;
13309;SDS011;6723;48.256;16.402;2023-02-07T14:47:18;19.07;;;11.80;;
13309;SDS011;6723;48.256;16.402;2023-02-07T14:49:49;19.63;;;12.30;;
13309;SDS011;6723;48.256;16.402;2023-02-07T14:52:37;19.17;;;11.63;;
13309;SDS011;6723;48.256;16.402;2023-02-07T14:55:05;19.37;;;11.37;;
13309;SDS011;6723;48.256;16.402;2023-02-07T15:03:20;17.67;;;11.50;;
13309;SDS011;6723;48.256;16.402;2023-02-07T15:05:47;20.03;;;12.17;;
13309;SDS011;6723;48.256;16.402;2023-02-07T15:08:22;22.07;;;12.23;;
13309;SDS011;6723;48.256;16.402;2023-02-07T15:10:53;21.33;;;11.93;;
13309;SDS011;6723;48.256;16.402;2023-02-07T15:13:36;21.37;;;11.77;;
13309;SDS011;6723;48.256;16.402;2023-02-07T15:16:13;17.67;;;11.17;;
13309;SDS011;6723;48.256;16.402;2023-02-07T15:18:45;22.80;;;11.77;;
13309;SDS011;6723;48.256;16.402;2023-02-07T15:21:50;17.73;;;11.47;;
13309;SDS011;6723;48.256;16.402;2023-02-07T15:26:55;19.13;;;12.03;;
13309;SDS011;6723;48.256;16.402;2023-02-07T15:29:24;18.17;;;11.17;;
13309;SDS011;6723;48.256;16.402;2023-02-07T15:31:54;18.53;;;11.20;;
13309;SDS011;6723;48.256;16.402;2023-02-07T15:34:25;19.47;;;11.63;;
13309;SDS011;6723;48.256;16.402;2023-02-07T15:37:05;19.03;;;11.87;;
13309;SDS011;6723;48.256;16.402;2023-02-07T15:39:38;19.87;;;11.53;;
13309;SDS011;6723;48.256;16.402;2023-02-07T15:42:03;17.03;;;11.57;;
13309;SDS011;6723;48.256;16.402;2023-02-07T15:44:30;19.20;;;12.57;;
13309;SDS011;6723;48.256;16.402;2023-02-07T15:47:04;19.67;;;12.13;;
13309;SDS011;6723;48.256;16.402;2023-02-07T15:49:32;19.03;;;12.00;;
13309;SDS011;6723;48.256;16.402;2023-02-07T15:52:05;20.50;;;12.67;;
13309;SDS011;6723;48.256;16.402;2023-02-07T15:54:37;22.67;;;12.53;;
13309;SDS011;6723;48.256;16.402;2023-02-07T15:57:10;20.07;;;12.73;;
13309;SDS011;6723;48.256;16.402;2023-02-07T15:59:47;19.13;;;12.00;;
13309;SDS011;6723;48.256;16.402;2023-02-07T16:02:22;22.40;;;13.03;;
13309;SDS011;6723;48.256;16.402;2023-02-07T16:04:56;20.90;;;12.63;;
13309;SDS011;6723;48.256;16.402;2023-02-07T16:07:22;21.80;;;13.23;;
13309;SDS011;6723;48.256;16.402;2023-02-07T16:09:49;20.37;;;12.50;;
13309;SDS011;6723;48.256;16.402;2023-02-07T16:15:53;21.90;;;13.30;;
13309;SDS011;6723;48.256;16.402;2023-02-07T16:18:42;22.27;;;13.03;;
13309;SDS011;6723;48.256;16.402;2023-02-07T16:21:17;21.77;;;13.13;;
13309;SDS011;6723;48.256;16.402;2023-02-07T16:23:48;20.33;;;13.20;;
13309;SDS011;6723;48.256;16.402;2023-02-07T16:26:17;23.23;;;13.67;;
13309;SDS011;6723;48.256;16.402;2023-02-07T16:28:47;21.47;;;13.27;;
13309;SDS011;6723;48.256;16.402;2023-02-07T16:31:13;23.47;;;13.30;;
13309;SDS011;6723;48.256;16.402;2023-02-07T16:33:39;23.03;;;12.97;;
13309;SDS011;6723;48.256;16.402;2023-02-07T16:36:05;24.63;;;13.33;;
13309;SDS011;6723;48.256;16.402;2023-02-07T16:38:35;21.73;;;13.30;;
13309;SDS011;6723;48.256;16.402;2023-02-07T16:41:01;24.23;;;14.43;;
13309;SDS011;6723;48.256;16.402;2023-02-07T16:43:31;26.17;;;16.30;;
13309;SDS011;6723;48.256;16.402;2023-02-07T16:46:02;28.47;;;16.07;;
13309;SDS011;6723;48.256;16.402;2023-02-07T16:48:29;27.17;;;16.73;;
13309;SDS011;6723;48.256;16.402;2023-02-07T16:50:55;30.23;;;17.47;;
13309;SDS011;6723;48.256;16.402;2023-02-07T16:53:22;26.73;;;15.57;;
13309;SDS011;6723;48.256;16.402;2023-02-07T16:56:04;25.27;;;14.80;;
13309;SDS011;6723;48.256;16.402;2023-02-07T16:58:30;23.67;;;14.57;;
13309;SDS011;6723;48.256;16.402;2023-02-07T17:00:58;22.60;;;13.33;;
13309;SDS011;6723;48.256;16.402;2023-02-07T17:03:25;22.80;;;14.43;;
13309;SDS011;6723;48.256;16.402;2023-02-07T17:05:51;22.10;;;13.70;;
13309;SDS011;6723;48.256;16.402;2023-02-07T17:08:19;24.40;;;14.60;;
13309;SDS011;6723;48.256;16.402;2023-02-07T17:10:58;22.53;;;13.87;;
13309;SDS011;6723;48.256;16.402;2023-02-07T17:13:25;22.17;;;13.67;;
13309;SDS011;6723;48.256;16.402;2023-02-07T17:15:52;20.87;;;13.27;;
13309;SDS011;6723;48.256;16.402;2023-02-07T17:18:18;22.07;;;12.80;;
13309;SDS011;6723;48.256;16.402;2023-02-07T17:20:45;20.53;;;12.40;;
13309;SDS011;6723;48.256;16.402;2023-02-07T17:23:11;23.63;;;12.43;;
13309;SDS011;6723;48.256;16.402;2023-02-07T17:25:37;18.83;;;12.10;;
13309;SDS011;6723;48.256;16.402;2023-02-07T17:28:03;21.00;;;12.50;;
13309;SDS011;6723;48.256;16.402;2023-02-07T17:30:32;21.03;;;12.60;;
13309;SDS011;6723;48.256;16.402;2023-02-07T17:33:05;19.33;;;12.63;;
13309;SDS011;6723;48.256;16.402;2023-02-07T17:35:32;21.63;;;12.27;;